Potomac — WBF7534 — position and weather

sailwx.info

Track history (hours):
 
Tides and Currents Weather Stations Pressure Air Temp Water Temp Dewpoint Dewpoint Depression Visibility Wind Speed Wind Dir Waves Ship Positions

Potomac

More information available from US FCC via Universal Licensing System and Coast Guard Vessel Documentation Center.

Last reported at 2014-Aug-21 20:33 UTC. Time now 2014-Aug-22 21:44 UTC.
Position N 37°48' W 122°17'.

Length 51 m; draft 3.1 m.

MMSI: 367166810.

Date/timePositionNaut miles runAvg speedWind from/ knotsBaromVisibWave heightAir tempDewpointWater temp
2014-Aug-21 20:33N 37°48' W 122°17'9 9.1
2014-Aug-21 19:33N 37°50' W 122°28'5 4.6
2014-Aug-21 18:33N 37°54' W 122°24'8 8.1
2014-Aug-21 17:31N 37°48' W 122°17'0 0.0
2014-Aug-21 16:33N 37°48' W 122°17'0 0.0
2014-Aug-21 05:27N 37°48' W 122°17'5 5.9
2014-Aug-21 04:33N 37°48' W 122°24'4 4.4
2014-Aug-21 03:33N 37°49' W 122°29'4 4.0
2014-Aug-21 02:33N 37°51' W 122°24'3 3.4
2014-Aug-21 01:33N 37°48' W 122°23'5 4.9
2014-Aug-21 00:32N 37°48' W 122°17'0 0.0
2014-Aug-20 23:32N 37°48' W 122°17'  
2014-Aug-18 02:05N 37°48' W 122°17'4 6.7
2014-Aug-18 01:33N 37°48' W 122°21'2 2.0
2014-Aug-18 00:33N 37°48' W 122°24'6 0.1
2014-Aug-16 04:33N 37°48' W 122°17'6 6.0
2014-Aug-16 03:33N 37°49' W 122°24'6 6.0
2014-Aug-16 02:33N 37°48' W 122°17'0 0.1
2014-Aug-16 01:31N 37°48' W 122°17'0 0.0
2014-Aug-16 00:31N 37°48' W 122°17'0 0.0
2014-Aug-15 23:28N 37°48' W 122°17'  
Track history (hours):
 
Tides and Currents Weather Stations Pressure Air Temp Water Temp Dewpoint Dewpoint Depression Visibility Wind Speed Wind Dir Waves Ship Positions

Potomac

More information available from US FCC via Universal Licensing System and Coast Guard Vessel Documentation Center.

Last reported at 2014-Aug-21 20:33 UTC. Time now 2014-Aug-22 21:44 UTC.
Position N 37°48' W 122°17'.

Length 51 m; draft 3.1 m.

MMSI: 367166810.

Date/timePositionNaut miles runAvg speedWind from/ knotsBaromVisibWave heightAir tempDewpointWater temp
2014-Aug-21 20:33N 37°48' W 122°17'9 9.1
2014-Aug-21 19:33N 37°50' W 122°28'5 4.6
2014-Aug-21 18:33N 37°54' W 122°24'8 8.1
2014-Aug-21 17:31N 37°48' W 122°17'0 0.0
2014-Aug-21 16:33N 37°48' W 122°17'0 0.0
2014-Aug-21 05:27N 37°48' W 122°17'5 5.9
2014-Aug-21 04:33N 37°48' W 122°24'4 4.4
2014-Aug-21 03:33N 37°49' W 122°29'4 4.0
2014-Aug-21 02:33N 37°51' W 122°24'3 3.4
2014-Aug-21 01:33N 37°48' W 122°23'5 4.9
2014-Aug-21 00:32N 37°48' W 122°17'0 0.0
2014-Aug-20 23:32N 37°48' W 122°17'  
2014-Aug-18 02:05N 37°48' W 122°17'4 6.7
2014-Aug-18 01:33N 37°48' W 122°21'2 2.0
2014-Aug-18 00:33N 37°48' W 122°24'6 0.1
2014-Aug-16 04:33N 37°48' W 122°17'6 6.0
2014-Aug-16 03:33N 37°49' W 122°24'6 6.0
2014-Aug-16 02:33N 37°48' W 122°17'0 0.1
2014-Aug-16 01:31N 37°48' W 122°17'0 0.0
2014-Aug-16 00:31N 37°48' W 122°17'0 0.0
2014-Aug-15 23:28N 37°48' W 122°17'  

Dump ship's entire track history